LiveATC.Net - Listen to live air traffic control over the Internet!


ICAO: EHTX  IATA:   Airport: Texel International Airport
City: De Cocksdorp
Country: Netherlands   Continent: Europe
EHKD METAR Weather: EHKD 240255Z AUTO 17002KT 0450 FG SCT270 10/09 Q1017 RED
EHTX ADS-B Flight Tracking  (ADSBExchange)
EHTX Flight Activity (FlightAware)
EHTX Webcam:  (Airport Webcams) (Airport Webcams) 

EHTX Radio
Feed Status: UP   Listeners: 0
Listen in your browser - HTML5 player (in browser, HTML5)
Click here to listen with your own player (launches your MP3 player)
Archive Access: EHTX Radio
FacilityFrequency
Texel Radio (Ground/Tower)119.305
Web site: http:/texelairport.nl

NOTICE

Unauthorized use prohibited. See LiveATC.net Terms of Service


Airport/ARTCC Code
Frequency Search
(e.g., 124.400, 128.75)
Site-wide search
 


Browse Feeds
Top 50 Feeds
HF Oceanic Feeds
Coverage Map
Bad Weather Areas

LiveATC FAQ

Increase Coverage

Contact LiveATC.net
Press Inquiries

LiveATC on iPhone
LiveATC on Android

LiveATC Mobile
(Mobile browser)

ATC Audio Archives
Interesting Recordings

LiveATC Forums


Home Page
About LiveATC.net


Terms of Use
Privacy Policy

AIRMETs/SIGMETs

FAA Airport Status
NAS Status
Arrival Demand


Server Software By:
Icecast.org
Liquidsoap